Terminal Aerodrome Forecast
Issued by NWS Lake Charles, LA

Home | Current Version | Previous Version | Text Only | Print | Product List | Glossary On
Versions: 1 2 3 4 5 6 7 8 9 10 11 12 13 14 15 16 17 18 19 20
499
FTUS44 KLCH 260119 AAA
TAFARA
TAF AMD
KARA 260119Z 2601/2624 VRB05KT P6SM VCSH SCT050 BKN120
     FM260300 VRB03KT P6SM SCT025 BKN200
     FM261200 VRB03KT P6SM VCSH SCT025 BKN250
     FM261500 VRB05KT P6SM VCTS SCT025CB BKN050 PROB30 2617/2623 2SM
      TSRA BKN025CB=

USA.gov is the U.S. government's official web portal to all federal, state and local government web resources and services.